Time;durP1;ratioP1;P1;durP2;ratioP2;P2;SDS_P1;SDS_P2;PMS_P1;PMS_P2;Temp;Humidity;BMP_temperature;BMP_pressure;BME280_temperature;BME280_humidity;BME280_pressure;Samples;Min_cycle;Max_cycle;Signal;HPM_P1;HPM_P2
2023/01/21 00:01:54;;;;;;;13.70;8.20;;;;;;;-0.08;85.34;99921.11;207866;1292;140668;-68
2023/01/21 00:06:58;;;;;;;12.40;7.50;;;;;;;-0.06;84.90;99924.43;208917;1286;140078;-65
2023/01/21 00:12:01;;;;;;;12.90;7.50;;;;;;;-0.09;85.24;99933.46;209249;1293;139732;-62
2023/01/21 00:17:05;;;;;;;16.40;8.00;;;;;;;-0.13;85.23;99934.36;209182;1286;140982;-65
2023/01/21 00:22:11;;;;;;;17.20;8.90;;;;;;;-0.12;85.36;99938.63;208794;1284;142571;-66
2023/01/21 00:27:15;;;;;;;15.00;9.70;;;;;;;-0.11;85.34;99950.61;209055;1294;140269;-62
2023/01/21 00:32:18;;;;;;;12.30;6.70;;;;;;;-0.16;85.19;99948.86;209743;1291;142065;-61
2023/01/21 00:37:23;;;;;;;12.10;8.10;;;;;;;-0.20;85.24;99955.40;209110;1279;140385;-64
2023/01/21 00:42:27;;;;;;;12.70;6.90;;;;;;;-0.20;84.94;99955.73;209610;1298;140685;-63
2023/01/21 00:47:36;;;;;;;11.90;6.90;;;;;;;-0.17;85.00;99948.60;210620;1292;140173;-62
2023/01/21 00:52:39;;;;;;;19.70;9.70;;;;;;;-0.16;84.89;99941.63;210415;1288;141639;-63
2023/01/21 00:57:41;;;;;;;15.30;7.80;;;;;;;-0.16;84.63;99947.06;210461;1294;140828;-61
2023/01/21 01:02:45;;;;;;;14.70;7.20;;;;;;;-0.21;84.52;99935.39;210320;1294;142035;-66
2023/01/21 01:07:49;;;;;;;10.90;5.30;;;;;;;-0.23;84.62;99943.67;210668;1295;141062;-68
2023/01/21 01:12:53;;;;;;;17.20;6.70;;;;;;;-0.26;84.74;99945.17;209031;1292;141232;-67
2023/01/21 01:17:56;;;;;;;10.60;6.70;;;;;;;-0.30;84.56;99946.98;209265;1293;140594;-68
2023/01/21 01:22:59;;;;;;;10.80;6.50;;;;;;;-0.34;84.65;99939.89;209574;1294;140311;-65
2023/01/21 01:28:02;;;;;;;18.10;7.80;;;;;;;-0.38;84.52;99935.55;208762;1292;141282;-64
2023/01/21 01:33:05;;;;;;;9.00;5.40;;;;;;;-0.39;84.52;99935.72;208516;1286;140508;-65
2023/01/21 01:38:08;;;;;;;7.50;5.60;;;;;;;-0.41;84.64;99922.48;208007;1286;140631;-68
2023/01/21 01:43:18;;;;;;;10.50;6.60;;;;;;;-0.41;84.92;99911.10;209107;1293;139896;-65
2023/01/21 01:48:31;;;;;;;11.20;6.10;;;;;;;-0.44;85.10;99911.55;209302;1292;140322;-66
2023/01/21 01:53:36;;;;;;;12.00;7.60;;;;;;;-0.43;84.71;99908.30;207766;1292;141647;-64
2023/01/21 01:58:38;;;;;;;10.30;5.90;;;;;;;-0.45;84.77;99909.73;208039;1285;140015;-66
2023/01/21 02:03:49;;;;;;;11.50;6.60;;;;;;;-0.40;85.06;99909.75;209127;1293;140601;-63
2023/01/21 02:08:54;;;;;;;9.90;7.10;;;;;;;-0.34;85.22;99903.42;207744;1285;141637;-66
2023/01/21 02:13:59;;;;;;;15.70;8.70;;;;;;;-0.36;85.15;99911.60;208650;1286;140494;-64
2023/01/21 02:19:23;;;;;;;11.00;7.10;;;;;;;-0.34;84.90;99909.32;208985;1284;141471;-64
2023/01/21 02:24:57;;;;;;;12.10;5.80;;;;;;;-0.33;85.05;99905.58;207953;1295;139613;-66
2023/01/21 02:30:37;;;;;;;12.20;8.00;;;;;;;-0.36;85.04;99907.96;208782;1279;140368;-65
2023/01/21 02:35:56;;;;;;;15.20;6.90;;;;;;;-0.38;85.24;99895.95;209781;1292;140135;-64
2023/01/21 02:41:14;;;;;;;12.30;7.60;;;;;;;-0.44;85.18;99886.77;209571;1286;140199;-67
2023/01/21 02:46:27;;;;;;;6.40;4.30;;;;;;;-0.44;85.10;99886.24;209689;1286;140132;-65
2023/01/21 02:51:30;;;;;;;10.50;5.50;;;;;;;-0.45;85.47;99884.70;210604;1285;140832;-62
2023/01/21 02:56:33;;;;;;;9.20;5.60;;;;;;;-0.42;85.34;99881.20;210464;1289;140715;-63
2023/01/21 03:02:14;;;;;;;9.30;5.40;;;;;;;-0.35;85.49;99883.13;210539;1293;140745;-67
2023/01/21 03:07:40;;;;;;;9.30;6.80;;;;;;;-0.39;85.52;99881.35;210749;1294;139903;-68
2023/01/21 03:13:06;;;;;;;9.20;5.70;;;;;;;-0.38;85.29;99868.48;209833;1292;139967;-65
2023/01/21 03:18:17;;;;;;;9.80;5.90;;;;;;;-0.41;85.86;99862.96;210068;1286;140582;-66
2023/01/21 03:23:31;;;;;;;8.90;6.20;;;;;;;-0.44;86.08;99856.13;208845;1294;139859;-65
2023/01/21 03:28:41;;;;;;;8.20;5.00;;;;;;;-0.42;86.06;99851.15;208913;1286;141558;-65
2023/01/21 03:33:50;;;;;;;8.30;5.40;;;;;;;-0.48;86.35;99847.24;208262;1292;141430;-64
2023/01/21 03:38:56;;;;;;;13.90;7.40;;;;;;;-0.52;86.67;99844.38;207899;1295;140854;-65
2023/01/21 03:43:59;;;;;;;8.60;5.50;;;;;;;-0.54;87.03;99844.21;208529;1278;152680;-65
2023/01/21 03:49:18;;;;;;;8.90;6.70;;;;;;;-0.60;87.12;99839.26;208556;1279;139950;-65
2023/01/21 03:54:21;;;;;;;10.10;6.90;;;;;;;-0.63;87.19;99828.98;207950;1285;140131;-66
2023/01/21 03:59:24;;;;;;;11.40;7.60;;;;;;;-0.65;87.26;99819.92;208888;1294;140369;-67
2023/01/21 04:04:26;;;;;;;10.20;7.80;;;;;;;-0.68;87.39;99809.38;208593;1294;141003;-66
2023/01/21 04:09:30;;;;;;;12.80;8.30;;;;;;;-0.66;87.29;99803.95;208641;1286;140366;-66
2023/01/21 04:14:33;;;;;;;10.50;7.90;;;;;;;-0.63;87.23;99795.29;209070;1281;141710;-65
2023/01/21 04:19:37;;;;;;;9.90;7.70;;;;;;;-0.69;87.49;99792.89;209769;1286;139780;-66
2023/01/21 04:24:40;;;;;;;9.50;6.90;;;;;;;-0.67;87.36;99791.54;208423;1294;139472;-64
2023/01/21 04:29:43;;;;;;;16.30;8.60;;;;;;;-0.70;87.74;99787.25;208393;1288;139609;-65
2023/01/21 04:34:47;;;;;;;11.20;8.10;;;;;;;-0.74;87.64;99782.42;209455;1294;139991;-65
2023/01/21 04:39:49;;;;;;;12.00;7.80;;;;;;;-0.72;87.55;99781.69;209094;1286;140710;-67
2023/01/21 04:44:52;;;;;;;8.90;6.00;;;;;;;-0.75;87.82;99770.89;210783;1291;140610;-66
2023/01/21 07:07:31;;;;;;;7.50;5.60;;;;;;;-0.99;89.07;99770.77;203192;1329;385203;-65
2023/01/21 07:12:34;;;;;;;5.90;5.30;;;;;;;-0.95;89.21;99774.38;206740;1308;139746;-63
2023/01/21 07:17:37;;;;;;;6.20;5.20;;;;;;;-0.94;89.01;99770.14;206011;1299;139665;-64
2023/01/21 07:22:39;;;;;;;7.40;6.00;;;;;;;-0.93;88.98;99779.45;208345;1303;138910;-64
2023/01/21 07:27:42;;;;;;;6.40;5.30;;;;;;;-0.89;89.09;99771.30;208092;1305;139709;-64
2023/01/21 07:32:46;;;;;;;7.00;6.10;;;;;;;-0.86;88.81;99765.88;209339;1301;139243;-64
2023/01/21 07:37:49;;;;;;;7.10;6.10;;;;;;;-0.85;88.99;99762.31;210070;1303;139572;-66
2023/01/21 07:42:54;;;;;;;5.00;4.00;;;;;;;-0.77;89.06;99759.75;208501;1297;140515;-62
2023/01/21 07:47:58;;;;;;;6.70;5.30;;;;;;;-0.73;88.94;99759.70;209370;1304;141721;-63
2023/01/21 07:53:00;;;;;;;6.40;5.30;;;;;;;-0.72;88.91;99750.86;207358;1290;139480;-65
2023/01/21 07:58:03;;;;;;;6.20;4.40;;;;;;;-0.70;88.82;99750.64;208443;1292;139923;-66
2023/01/21 08:03:06;;;;;;;6.70;4.70;;;;;;;-0.73;88.86;99743.37;208104;1285;219073;-63
2023/01/21 08:08:09;;;;;;;6.60;5.20;;;;;;;-0.69;88.67;99745.66;208047;1297;139750;-65
2023/01/21 08:13:13;;;;;;;6.80;4.50;;;;;;;-0.67;88.65;99742.45;209323;1298;139954;-64
2023/01/21 08:18:16;;;;;;;6.10;4.90;;;;;;;-0.68;89.05;99745.05;208291;1298;139651;-63
2023/01/21 08:23:20;;;;;;;8.40;5.60;;;;;;;-0.65;88.77;99735.66;207324;1296;141138;-65
2023/01/21 08:28:23;;;;;;;6.40;4.10;;;;;;;-0.68;88.73;99736.25;208053;1297;140225;-62
2023/01/21 08:33:27;;;;;;;6.40;5.20;;;;;;;-0.70;88.92;99739.45;207062;1296;139037;-65
2023/01/21 08:38:30;;;;;;;6.30;4.50;;;;;;;-0.74;89.02;99740.02;208714;1288;140804;-68
2023/01/21 08:49:25;;;;;;;6.90;4.40;;;;;;;-0.75;89.28;99738.23;209055;1342;683478;-63
2023/01/21 08:54:28;;;;;;;5.50;4.40;;;;;;;-0.75;89.23;99740.16;206268;1307;139490;-63
2023/01/21 08:59:30;;;;;;;7.70;6.20;;;;;;;-0.69;89.32;99742.30;207568;1307;283688;-65
2023/01/21 09:04:33;;;;;;;5.60;4.60;;;;;;;-0.65;89.30;99745.38;206758;1304;139565;-63
2023/01/21 09:12:05;;;;;;;6.20;4.90;;;;;;;-0.51;89.16;99741.96;209427;1336;683679;-63
2023/01/21 09:32:06;;;;;;;7.10;5.50;;;;;;;-0.23;89.11;99746.27;209419;1321;684357;-68
2023/01/21 09:37:09;;;;;;;11.40;10.00;;;;;;;-0.20;89.06;99742.35;206761;1301;220455;-67
2023/01/21 09:42:25;;;;;;;7.60;4.90;;;;;;;-0.16;89.22;99741.79;206958;1313;527994;-66
2023/01/21 09:47:36;;;;;;;3.90;3.60;;;;;;;-0.13;89.18;99744.67;208055;1304;139335;-67
2023/01/21 09:52:45;;;;;;;3.20;2.90;;;;;;;-0.12;88.98;99744.02;208748;1304;139965;-66
2023/01/21 09:58:10;;;;;;;4.10;3.40;;;;;;;-0.12;89.09;99742.32;209288;1293;139587;-64
2023/01/21 10:03:24;;;;;;;7.20;3.50;;;;;;;-0.06;89.09;99747.03;210088;1306;139924;-63
2023/01/21 10:08:50;;;;;;;6.00;4.40;;;;;;;0.00;88.97;99748.13;208051;1297;139542;-63
2023/01/21 10:14:13;;;;;;;3.70;3.40;;;;;;;0.03;89.27;99747.45;209475;1300;140210;-66
2023/01/21 10:19:27;;;;;;;3.30;2.90;;;;;;;0.06;88.93;99746.83;209503;1297;138306;-63
2023/01/21 10:24:48;;;;;;;5.20;3.40;;;;;;;0.07;89.05;99748.23;207362;1297;139564;-61
2023/01/21 10:29:58;;;;;;;3.90;3.60;;;;;;;0.13;89.21;99742.56;207875;1289;139401;-65
2023/01/21 10:35:12;;;;;;;3.60;2.80;;;;;;;0.12;89.21;99745.77;207280;1289;228706;-62
2023/01/21 10:40:17;;;;;;;4.20;3.70;;;;;;;0.11;89.55;99747.86;209402;1296;139948;-65
2023/01/21 10:45:30;;;;;;;4.30;3.90;;;;;;;0.15;89.49;99748.55;207813;1298;141137;-64
2023/01/21 10:50:42;;;;;;;3.80;3.50;;;;;;;0.21;89.33;99745.50;208064;1295;140147;-66
2023/01/21 10:56:15;;;;;;;2.90;2.70;;;;;;;0.28;89.38;99748.39;208116;1286;140579;-68
2023/01/21 11:01:41;;;;;;;2.70;2.50;;;;;;;0.36;89.25;99754.13;207629;1284;220011;-64
2023/01/21 11:07:08;;;;;;;4.60;4.20;;;;;;;0.33;89.28;99753.86;208523;1285;138652;-64
2023/01/21 11:12:19;;;;;;;4.50;3.20;;;;;;;0.36;89.00;99756.78;207883;1278;138958;-63
2023/01/21 11:17:34;;;;;;;4.40;3.40;;;;;;;0.34;89.38;99752.23;209140;1296;140314;-64
2023/01/21 11:22:44;;;;;;;6.50;4.40;;;;;;;0.44;89.43;99752.44;208245;1292;138405;-66
2023/01/21 11:27:51;;;;;;;5.40;4.40;;;;;;;0.57;89.42;99749.75;207740;1285;139522;-62
2023/01/21 11:33:12;;;;;;;4.70;3.60;;;;;;;0.70;89.30;99747.38;208687;1285;244520;-66
2023/01/21 11:53:24;;;;;;;1.90;1.60;;;;;;;1.32;89.82;99752.25;208016;1335;684199;-72
2023/01/21 11:58:32;;;;;;;3.70;3.30;;;;;;;1.38;88.87;99752.41;204462;1310;140106;-66
2023/01/21 12:03:42;;;;;;;2.20;2.10;;;;;;;1.41;88.76;99758.56;205064;1302;1058019;-64
2023/01/21 12:08:50;;;;;;;5.80;3.70;;;;;;;1.41;88.42;99761.10;206434;1300;139348;-64
2023/01/21 12:14:13;;;;;;;3.90;2.40;;;;;;;1.47;88.47;99763.48;207755;1283;140873;-69
2023/01/21 12:19:23;;;;;;;2.20;1.90;;;;;;;1.59;88.13;99764.39;207835;1289;140399;-64
2023/01/21 12:24:45;;;;;;;2.50;2.00;;;;;;;1.65;88.10;99766.16;208743;1297;139561;-63
2023/01/21 12:30:01;;;;;;;4.10;2.40;;;;;;;1.75;87.80;99762.94;209807;1296;138471;-67
2023/01/21 12:35:12;;;;;;;1.90;1.80;;;;;;;2.01;88.17;99758.01;209911;1295;138904;-67
2023/01/21 12:40:23;;;;;;;2.40;2.10;;;;;;;2.34;87.39;99763.35;209901;1297;138949;-65
2023/01/21 12:45:38;;;;;;;2.70;2.00;;;;;;;2.59;87.06;99769.48;210157;1297;139604;-65
2023/01/21 12:51:06;;;;;;;3.20;3.00;;;;;;;2.69;86.78;99775.59;210194;1296;140719;-66
2023/01/21 12:56:19;;;;;;;;;;;;;;;2.70;86.29;99780.90;210085;1303;140456;-66
2023/01/21 13:01:34;;;;;;;2.20;2.00;;;;;;;2.54;86.21;99784.06;209669;1287;125319;-67
2023/01/21 13:06:48;;;;;;;2.10;1.90;;;;;;;2.39;86.09;99789.41;208768;1296;139755;-67
2023/01/21 13:12:03;;;;;;;4.60;2.50;;;;;;;2.33;86.35;99796.41;208530;1296;138824;-68
2023/01/21 13:17:25;;;;;;;2.70;2.20;;;;;;;2.31;86.21;99798.13;207275;1287;139375;-67
2023/01/21 13:22:43;;;;;;;2.40;2.20;;;;;;;2.27;86.16;99806.52;208706;1288;138458;-70
2023/01/21 13:28:05;;;;;;;2.10;1.90;;;;;;;2.17;86.25;99809.43;207686;1289;139213;-69
2023/01/21 13:33:46;;;;;;;4.80;4.00;;;;;;;2.13;85.98;99818.96;207298;1297;139380;-69
2023/01/21 13:38:52;;;;;;;3.60;2.50;;;;;;;2.15;86.69;99829.49;207218;1295;223595;-69
2023/01/21 13:44:27;;;;;;;5.00;2.50;;;;;;;2.16;86.72;99835.14;207327;1289;138759;-68
2023/01/21 13:49:58;;;;;;;3.00;2.80;;;;;;;2.09;86.46;99845.52;208474;1287;139413;-67
2023/01/21 13:55:08;;;;;;;5.30;2.60;;;;;;;2.01;86.94;99851.20;207907;1289;139054;-68
2023/01/21 14:00:21;;;;;;;5.60;3.20;;;;;;;1.91;86.64;99857.44;208447;1296;140329;-68
2023/01/21 14:05:56;;;;;;;3.90;2.90;;;;;;;1.83;87.24;99861.48;207472;1295;140360;-68
2023/01/21 14:11:26;;;;;;;5.70;3.00;;;;;;;1.73;86.77;99873.84;208192;1286;138934;-67
2023/01/21 14:17:14;;;;;;;3.30;2.50;;;;;;;1.69;87.27;99880.77;208923;1288;139436;-67
2023/01/21 14:22:27;;;;;;;2.00;1.90;;;;;;;1.61;87.17;99887.67;209235;1296;140559;-68
2023/01/21 14:27:59;;;;;;;2.90;2.60;;;;;;;1.54;87.30;99898.38;207968;1285;138998;-65
2023/01/21 14:33:11;;;;;;;7.30;3.60;;;;;;;1.49;87.51;99911.06;208426;1287;139692;-67
2023/01/21 14:38:24;;;;;;;4.20;3.10;;;;;;;1.40;87.25;99916.49;210066;1280;139570;-68
2023/01/21 14:43:31;;;;;;;4.30;3.30;;;;;;;1.36;87.54;99921.95;210218;1298;140405;-68
2023/01/21 14:48:39;;;;;;;;;;;;;;;1.32;87.45;99932.40;210338;1296;139598;-68
2023/01/21 14:53:49;;;;;;;2.70;2.30;;;;;;;1.23;87.71;99939.23;209360;1289;125749;-68
2023/01/21 14:59:04;;;;;;;3.40;2.60;;;;;;;1.25;88.03;99955.95;210274;1303;139863;-68
2023/01/21 15:04:31;;;;;;;4.60;3.70;;;;;;;1.21;88.18;99964.95;209695;1296;138930;-67
2023/01/21 15:09:42;;;;;;;7.50;3.60;;;;;;;1.15;88.10;99975.04;208826;1296;139792;-67
2023/01/21 15:14:48;;;;;;;4.50;3.60;;;;;;;1.15;88.01;99979.34;208976;1297;140392;-66
2023/01/21 15:19:57;;;;;;;8.40;5.10;;;;;;;1.15;88.43;99982.63;208320;1297;142083;-66
2023/01/21 15:25:19;;;;;;;6.20;4.00;;;;;;;1.12;88.35;99992.08;209410;1299;140939;-67
2023/01/21 15:30:27;;;;;;;7.50;4.30;;;;;;;1.09;88.32;99997.44;208679;1294;140102;-66
2023/01/21 15:35:35;;;;;;;7.10;4.10;;;;;;;1.04;88.08;100002.59;207676;1288;138510;-67
2023/01/21 15:41:00;;;;;;;;;;;;;;;0.95;88.41;100009.81;208151;1295;139778;-67
2023/01/21 15:46:34;;;;;;;6.80;4.20;;;;;;;0.91;88.78;100015.32;208152;1291;125889;-69
2023/01/21 15:51:54;;;;;;;7.00;4.70;;;;;;;0.89;88.75;100020.96;208243;1289;139760;-64
2023/01/21 15:57:11;;;;;;;7.80;5.60;;;;;;;0.87;89.06;100028.91;207283;1290;139347;-63
2023/01/21 16:02:25;;;;;;;5.40;4.50;;;;;;;0.84;89.08;100031.20;208170;1295;139905;-63
2023/01/21 16:07:48;;;;;;;6.70;6.10;;;;;;;0.79;89.00;100041.11;208881;1288;141505;-67
2023/01/21 16:13:03;;;;;;;7.50;4.80;;;;;;;0.79;89.14;100054.95;208471;1289;140124;-67
2023/01/21 16:18:51;;;;;;;7.80;6.10;;;;;;;0.78;89.43;100069.80;208177;1289;140818;-67
2023/01/21 16:23:56;;;;;;;;;;;;;;;0.76;89.45;100079.38;207136;1289;245483;-66
2023/01/21 16:29:00;;;;;;;12.80;6.70;;;;;;;0.75;89.32;100083.70;209089;1296;125795;-67
2023/01/21 16:34:04;;;;;;;12.10;7.80;;;;;;;0.79;89.30;100092.40;209672;1296;140014;-66
2023/01/21 16:39:09;;;;;;;11.20;6.80;;;;;;;0.80;89.63;100102.15;207392;1287;140107;-66
2023/01/21 16:44:15;;;;;;;10.70;6.50;;;;;;;0.85;89.44;100111.21;210218;1287;142002;-66
2023/01/21 16:49:19;;;;;;;19.50;10.10;;;;;;;0.90;89.71;100120.24;210043;1298;139248;-65
2023/01/21 16:54:24;;;;;;;17.80;11.60;;;;;;;0.93;89.47;100126.91;210142;1296;140339;-65
2023/01/21 16:59:38;;;;;;;19.40;10.20;;;;;;;0.96;89.51;100135.88;210140;1297;139994;-67
2023/01/21 17:04:40;;;;;;;16.10;12.10;;;;;;;1.02;89.54;100141.92;210021;1295;141005;-65
2023/01/21 17:09:43;;;;;;;26.10;12.00;;;;;;;1.02;89.49;100145.96;208232;1297;139796;-65
2023/01/21 17:14:53;;;;;;;20.80;10.70;;;;;;;1.01;89.61;100158.79;208916;1295;141373;-68
2023/01/21 17:19:57;;;;;;;21.40;12.50;;;;;;;1.02;89.47;100170.11;208291;1296;140492;-66
2023/01/21 17:25:22;;;;;;;23.70;12.70;;;;;;;0.98;89.52;100179.36;208692;1295;139921;-65
2023/01/21 17:30:32;;;;;;;21.10;13.40;;;;;;;1.00;89.84;100193.14;208102;1290;140146;-67
2023/01/21 17:35:36;;;;;;;23.50;13.10;;;;;;;1.02;90.04;100203.35;207774;1295;139811;-63
2023/01/21 17:41:02;;;;;;;21.60;14.40;;;;;;;0.97;89.76;100211.51;208311;1288;139692;-66
2023/01/21 17:46:12;;;;;;;22.90;13.50;;;;;;;0.98;89.94;100222.47;207660;1289;140670;-64
2023/01/21 17:51:28;;;;;;;21.40;13.30;;;;;;;0.94;89.86;100225.02;208356;1296;139794;-68
2023/01/21 18:02:21;;;;;;;27.00;15.70;;;;;;;0.95;90.16;100246.08;213951;1261;140828;-67
2023/01/21 18:07:30;;;;;;;27.80;14.60;;;;;;;0.95;90.11;100254.09;208612;1300;139751;-62
2023/01/21 18:12:35;;;;;;;22.90;15.50;;;;;;;0.97;90.31;100261.91;208712;1293;223465;-67
2023/01/21 18:17:46;;;;;;;26.40;13.80;;;;;;;0.99;90.45;100268.05;208474;1298;141390;-64
2023/01/21 18:22:58;;;;;;;22.10;13.70;;;;;;;1.03;90.23;100278.01;207237;1289;210682;-63
2023/01/21 18:28:03;;;;;;;174.30;58.60;;;;;;;1.05;90.27;100279.92;208048;1291;140453;-62
2023/01/21 18:33:11;;;;;;;47.50;26.30;;;;;;;1.02;90.48;100288.57;208031;1290;140667;-63
2023/01/21 18:38:28;;;;;;;31.10;16.70;;;;;;;1.05;90.41;100293.56;208140;1299;141410;-63
2023/01/21 18:43:36;;;;;;;22.60;14.00;;;;;;;1.09;90.69;100300.84;208381;1283;244491;-63
2023/01/21 18:48:41;;;;;;;29.90;15.00;;;;;;;1.08;90.06;100307.56;208304;1283;139158;-66
2023/01/21 18:53:46;;;;;;;29.80;17.80;;;;;;;1.10;90.50;100310.47;207756;1291;139786;-65
2023/01/21 18:58:54;;;;;;;24.10;16.30;;;;;;;1.12;90.23;100319.27;208134;1291;140687;-64
2023/01/21 19:04:02;;;;;;;25.80;13.20;;;;;;;1.09;90.85;100326.17;208102;1296;139638;-63
2023/01/21 19:09:24;;;;;;;24.80;14.80;;;;;;;1.12;90.27;100336.36;206804;1286;140492;-62
2023/01/21 19:14:33;;;;;;;26.60;16.80;;;;;;;1.15;90.45;100341.82;207691;1298;139804;-66
2023/01/21 19:19:39;;;;;;;38.30;18.50;;;;;;;1.15;90.75;100354.39;207997;1291;139707;-66
2023/01/21 19:24:43;;;;;;;27.40;16.80;;;;;;;1.17;90.92;100362.64;208350;1292;140757;-65
2023/01/21 19:29:50;;;;;;;25.30;16.90;;;;;;;1.16;90.42;100371.80;209744;1300;139829;-61
2023/01/21 19:34:56;;;;;;;31.40;18.70;;;;;;;1.17;90.36;100384.87;207739;1293;231003;-62
2023/01/21 19:40:23;;;;;;;32.40;18.90;;;;;;;1.20;90.44;100388.73;208151;1292;237368;-62
2023/01/21 19:45:28;;;;;;;34.20;16.80;;;;;;;1.24;90.77;100395.17;209596;1299;141121;-63
2023/01/21 19:50:33;;;;;;;29.50;16.10;;;;;;;1.27;90.48;100398.70;209716;1292;139884;-68
2023/01/21 19:55:39;;;;;;;31.40;19.70;;;;;;;1.31;90.14;100400.86;209621;1282;139883;-65
2023/01/21 20:00:48;;;;;;;34.80;18.40;;;;;;;1.30;89.89;100405.05;208539;1292;140009;-66
2023/01/21 20:05:56;;;;;;;32.00;18.70;;;;;;;1.23;90.29;100417.10;208465;1292;140958;-65
2023/01/21 20:11:02;;;;;;;32.50;16.90;;;;;;;1.26;90.28;100423.28;209171;1292;139616;-65
2023/01/21 20:16:15;;;;;;;257.80;123.70;;;;;;;1.33;90.43;100430.61;207414;1292;141994;-65
2023/01/21 20:21:24;;;;;;;72.20;29.50;;;;;;;1.40;90.34;100439.19;207979;1283;140135;-68
2023/01/21 20:26:37;;;;;;;48.80;24.90;;;;;;;1.43;90.51;100444.16;208188;1292;140942;-68
2023/01/21 20:31:45;;;;;;;45.80;24.50;;;;;;;1.47;90.18;100448.31;207612;1292;141263;-66
2023/01/21 20:36:52;;;;;;;54.30;25.00;;;;;;;1.50;89.88;100452.38;206870;1292;141735;-65
2023/01/21 20:41:57;;;;;;;42.50;22.60;;;;;;;1.47;90.10;100457.93;206888;1286;142144;-63
2023/01/21 20:47:04;;;;;;;29.90;17.10;;;;;;;1.43;89.90;100464.35;207364;1286;141253;-66
2023/01/21 20:52:12;;;;;;;31.20;16.10;;;;;;;1.41;90.03;100475.41;207395;1292;141440;-62
2023/01/21 20:57:20;;;;;;;24.60;14.90;;;;;;;1.40;90.35;100483.65;208231;1299;140541;-61
2023/01/21 21:02:23;;;;;;;33.70;18.70;;;;;;;1.39;90.17;100494.80;206864;1286;141360;-62
2023/01/21 21:07:26;;;;;;;28.30;16.00;;;;;;;1.40;90.45;100505.44;209099;1280;142050;-68
2023/01/21 21:12:30;;;;;;;27.40;17.90;;;;;;;1.44;90.34;100509.88;208011;1286;141322;-62
2023/01/21 21:17:33;;;;;;;29.30;20.30;;;;;;;1.44;90.48;100520.94;208731;1286;152576;-62
2023/01/21 21:22:35;;;;;;;30.40;16.40;;;;;;;1.40;90.09;100522.76;208296;1300;143149;-63
2023/01/21 21:27:39;;;;;;;30.30;16.50;;;;;;;1.40;90.12;100534.08;208963;1292;220982;-64
2023/01/21 21:32:42;;;;;;;32.30;17.50;;;;;;;1.45;90.22;100543.11;208176;1286;140556;-68
2023/01/21 21:37:45;;;;;;;34.10;19.20;;;;;;;1.45;90.30;100554.25;209645;1307;140494;-68
2023/01/21 21:48:37;;;;;;;37.60;20.10;;;;;;;1.51;90.04;100563.84;209674;1293;141410;-63
2023/01/21 21:53:40;;;;;;;39.70;20.40;;;;;;;1.49;90.33;100572.41;209660;1299;141088;-66
2023/01/21 22:05:01;;;;;;;36.10;20.30;;;;;;;1.53;89.97;100584.48;208514;1299;244653;-65
2023/01/21 22:10:05;;;;;;;44.40;22.30;;;;;;;1.55;90.03;100586.46;208729;1299;141617;-65
2023/01/21 22:15:08;;;;;;;42.00;22.20;;;;;;;1.54;90.08;100589.39;209000;1300;139513;-66
2023/01/21 22:20:11;;;;;;;32.60;18.60;;;;;;;1.52;89.82;100592.94;207551;1293;140325;-64
2023/01/21 22:25:13;;;;;;;38.40;21.40;;;;;;;1.50;89.68;100599.48;208689;1293;139484;-64
2023/01/21 22:30:15;;;;;;;40.70;21.50;;;;;;;1.48;89.86;100599.71;208694;1293;140857;-65
2023/01/21 22:35:18;;;;;;;32.20;17.10;;;;;;;1.45;89.66;100598.09;207637;1293;139670;-64
2023/01/21 22:40:21;;;;;;;34.00;20.10;;;;;;;1.45;89.88;100597.39;207953;1293;143502;-65
2023/01/21 22:45:24;;;;;;;36.90;18.20;;;;;;;1.43;89.78;100598.79;208164;1300;140789;-63
2023/01/21 22:50:27;;;;;;;34.20;19.40;;;;;;;1.33;89.77;100599.41;207837;1286;139803;-66
2023/01/21 22:55:31;;;;;;;32.70;17.50;;;;;;;1.23;89.69;100604.33;207811;1291;140546;-65
2023/01/21 23:00:38;;;;;;;34.20;16.20;;;;;;;1.19;89.73;100611.41;207861;1293;140758;-62
2023/01/21 23:05:41;;;;;;;33.30;19.50;;;;;;;1.22;89.97;100618.73;208284;1306;221476;-67
2023/01/21 23:10:45;;;;;;;37.30;18.60;;;;;;;1.23;90.28;100625.01;208219;1300;139965;-65
2023/01/21 23:15:48;;;;;;;37.30;17.40;;;;;;;1.27;89.89;100627.03;208001;1293;140211;-67
2023/01/21 23:20:51;;;;;;;34.60;17.80;;;;;;;1.30;90.38;100629.46;207073;1291;142320;-64
2023/01/21 23:25:54;;;;;;;27.00;17.00;;;;;;;1.29;89.98;100632.41;209437;1300;140536;-66
2023/01/21 23:31:13;;;;;;;32.90;18.60;;;;;;;1.21;89.85;100637.22;208345;1300;140714;-66
2023/01/21 23:36:18;;;;;;;30.40;15.80;;;;;;;1.19;90.01;100642.59;209166;1293;139912;-69
2023/01/21 23:41:20;;;;;;;26.90;15.30;;;;;;;1.22;90.01;100642.89;209346;1305;141294;-68
2023/01/21 23:46:23;;;;;;;32.00;17.70;;;;;;;1.24;90.05;100645.52;209555;1293;142219;-66
2023/01/21 23:51:29;;;;;;;32.30;15.00;;;;;;;1.25;90.25;100649.11;209110;1300;140785;-66
2023/01/21 23:56:32;;;;;;;32.80;16.90;;;;;;;1.29;90.21;100650.46;209806;1300;140530;-64
